Time;durP1;ratioP1;P1;durP2;ratioP2;P2;SDS_P1;SDS_P2;PMS_P1;PMS_P2;Temp;Humidity;BMP_temperature;BMP_pressure;BME280_temperature;BME280_humidity;BME280_pressure;Samples;Min_cycle;Max_cycle;Signal;HPM_P1;HPM_P2
2022/04/05 00:00:33;;;;;;;9.70;8.90;;;;;;;;;;5076245;28;24446;-53
2022/04/05 00:02:58;;;;;;;10.13;9.33;;;;;;;;;;5070181;28;24407;-54
2022/04/05 00:05:24;;;;;;;10.17;9.37;;;;;;;;;;5071021;28;24505;-53
2022/04/05 00:07:49;;;;;;;9.60;8.80;;;;;;;;;;5079547;28;24418;-53
2022/04/05 00:10:14;;;;;;;9.35;8.55;;;;;;;;;;5070465;28;24536;-54
2022/04/05 00:12:40;;;;;;;9.83;9.03;;;;;;;;;;5077234;28;24427;-54
2022/04/05 00:15:06;;;;;;;9.85;9.05;;;;;;;;;;5073981;28;24984;-53
2022/04/05 00:17:32;;;;;;;10.27;9.37;;;;;;;;;;5079495;28;24423;-53
2022/04/05 00:19:58;;;;;;;10.27;9.38;;;;;;;;;;5069123;28;24427;-53
2022/04/05 00:22:23;;;;;;;10.88;9.98;;;;;;;;;;5076313;28;24429;-53
2022/04/05 00:24:48;;;;;;;11.23;10.23;;;;;;;;;;5082973;28;24406;-53
2022/04/05 00:27:14;;;;;;;11.87;10.90;;;;;;;;;;5084405;28;24406;-53
2022/04/05 00:29:39;;;;;;;11.77;10.73;;;;;;;;;;5066423;28;24526;-53
2022/04/05 00:32:04;;;;;;;11.77;10.68;;;;;;;;;;5077162;28;24477;-53
2022/04/05 00:34:29;;;;;;;12.13;11.03;;;;;;;;;;5070898;28;24765;-53
2022/04/05 00:36:56;;;;;;;11.53;10.53;;;;;;;;;;5070827;28;25012;-53
2022/04/05 00:39:22;;;;;;;12.20;11.10;;;;;;;;;;5072072;28;25324;-52
2022/04/05 00:41:47;;;;;;;11.70;10.70;;;;;;;;;;5079996;28;24434;-52
2022/04/05 00:44:13;;;;;;;11.60;10.60;;;;;;;;;;5078022;28;24422;-52
2022/04/05 00:46:38;;;;;;;11.77;10.77;;;;;;;;;;5071016;28;25009;-52
2022/04/05 00:49:04;;;;;;;12.55;11.45;;;;;;;;;;5070002;28;24941;-52
2022/04/05 00:51:29;;;;;;;12.60;11.40;;;;;;;;;;5073155;28;24536;-52
2022/04/05 00:53:57;;;;;;;12.30;11.20;;;;;;;;;;5076353;28;24497;-52
2022/04/05 00:56:23;;;;;;;11.80;10.77;;;;;;;;;;5073155;28;24986;-52
2022/04/05 00:58:50;;;;;;;12.25;11.15;;;;;;;;;;5071640;28;24461;-52
2022/04/05 01:01:16;;;;;;;13.05;11.85;;;;;;;;;;5078274;28;24979;-52
2022/04/05 01:03:48;;;;;;;13.02;11.77;;;;;;;;;;5077451;28;24521;-53
2022/04/05 01:06:14;;;;;;;12.98;11.77;;;;;;;;;;5080420;28;24952;-53
2022/04/05 01:08:40;;;;;;;12.73;11.52;;;;;;;;;;5084081;28;24425;-53
2022/04/05 01:11:06;;;;;;;13.70;12.40;;;;;;;;;;5066396;28;24434;-52
2022/04/05 01:13:32;;;;;;;13.10;11.80;;;;;;;;;;5083525;28;24483;-52
2022/04/05 01:15:57;;;;;;;12.60;11.45;;;;;;;;;;5077992;28;24423;-53
2022/04/05 01:18:22;;;;;;;13.50;12.30;;;;;;;;;;5069679;28;24467;-53
2022/04/05 01:20:49;;;;;;;12.80;11.60;;;;;;;;;;5080466;28;24422;-52
2022/04/05 01:23:19;;;;;;;13.30;12.10;;;;;;;;;;5066689;28;24623;-53
2022/04/05 01:25:45;;;;;;;12.53;11.40;;;;;;;;;;5080120;28;24414;-52
2022/04/05 01:28:10;;;;;;;13.80;12.50;;;;;;;;;;5085786;28;25038;-53
2022/04/05 01:30:35;;;;;;;13.47;12.07;;;;;;;;;;5071116;28;24418;-53
2022/04/05 01:33:00;;;;;;;13.03;11.83;;;;;;;;;;5069139;28;24426;-53
2022/04/05 01:35:26;;;;;;;12.23;11.13;;;;;;;;;;5074776;28;24425;-52
2022/04/05 01:37:51;;;;;;;12.90;11.70;;;;;;;;;;5082318;28;24460;-53
2022/04/05 01:40:16;;;;;;;13.40;12.10;;;;;;;;;;5077446;28;24407;-53
2022/04/05 01:42:41;;;;;;;13.02;11.82;;;;;;;;;;5083039;28;24440;-53
2022/04/05 01:45:06;;;;;;;11.93;10.82;;;;;;;;;;5082259;28;24499;-53
2022/04/05 01:47:32;;;;;;;12.65;11.45;;;;;;;;;;5071741;28;24410;-54
2022/04/05 01:49:57;;;;;;;12.50;11.40;;;;;;;;;;5081771;28;24433;-53
2022/04/05 01:52:23;;;;;;;12.70;11.50;;;;;;;;;;5066603;28;24494;-53
2022/04/05 01:54:48;;;;;;;11.90;10.80;;;;;;;;;;5075603;28;24509;-53
2022/04/05 01:57:13;;;;;;;13.57;12.27;;;;;;;;;;5068185;28;24430;-53
2022/04/05 01:59:39;;;;;;;14.27;12.80;;;;;;;;;;5066734;28;24410;-53
2022/04/05 02:02:05;;;;;;;12.65;11.45;;;;;;;;;;5072689;28;24489;-53
2022/04/05 02:04:31;;;;;;;13.48;12.13;;;;;;;;;;5075816;28;24987;-53
2022/04/05 02:06:57;;;;;;;12.07;10.97;;;;;;;;;;5074310;28;24417;-53
2022/04/05 02:09:22;;;;;;;13.48;12.18;;;;;;;;;;5078603;28;24455;-53
2022/04/05 02:11:47;;;;;;;11.90;10.80;;;;;;;;;;5068193;28;24887;-55
2022/04/05 02:14:13;;;;;;;11.60;10.50;;;;;;;;;;5079528;28;24451;-52
2022/04/05 02:16:38;;;;;;;12.00;10.80;;;;;;;;;;5066040;28;25018;-53
2022/04/05 02:19:04;;;;;;;12.17;11.07;;;;;;;;;;5069886;28;24427;-52
2022/04/05 02:21:29;;;;;;;12.00;10.90;;;;;;;;;;5066191;28;24844;-53
2022/04/05 02:23:54;;;;;;;12.00;10.90;;;;;;;;;;5065914;28;24425;-53
2022/04/05 02:26:19;;;;;;;11.53;10.53;;;;;;;;;;5076573;28;24421;-53
2022/04/05 02:28:44;;;;;;;10.57;9.63;;;;;;;;;;5076881;28;24431;-54
2022/04/05 02:31:10;;;;;;;10.90;9.90;;;;;;;;;;5070094;28;24501;-53
2022/04/05 02:33:35;;;;;;;10.50;9.53;;;;;;;;;;5067675;28;24450;-54
2022/04/05 02:36:00;;;;;;;10.60;9.70;;;;;;;;;;5078129;28;24426;-54
2022/04/05 02:38:25;;;;;;;11.45;10.35;;;;;;;;;;5065986;28;24842;-53
2022/04/05 02:40:52;;;;;;;10.43;9.43;;;;;;;;;;5073178;28;24468;-54
2022/04/05 02:43:17;;;;;;;9.63;8.73;;;;;;;;;;5073564;28;24411;-53
2022/04/05 02:45:42;;;;;;;9.68;8.77;;;;;;;;;;5080973;28;24495;-54
2022/04/05 02:48:07;;;;;;;9.80;8.90;;;;;;;;;;5066121;28;24411;-51
2022/04/05 02:50:32;;;;;;;9.30;8.50;;;;;;;;;;5076136;28;24445;-53
2022/04/05 02:52:57;;;;;;;9.95;9.05;;;;;;;;;;5072090;28;24808;-53
2022/04/05 02:55:23;;;;;;;9.73;8.83;;;;;;;;;;5066234;28;24453;-50
2022/04/05 02:57:49;;;;;;;9.50;8.60;;;;;;;;;;5065967;28;24820;-54
2022/04/05 03:00:15;;;;;;;9.43;8.57;;;;;;;;;;5069331;28;24468;-54
2022/04/05 03:02:41;;;;;;;9.77;8.77;;;;;;;;;;5071633;28;24988;-53
2022/04/05 03:05:06;;;;;;;9.27;8.43;;;;;;;;;;5066215;28;24415;-54
2022/04/05 03:07:34;;;;;;;8.67;7.87;;;;;;;;;;5078402;28;24658;-53
2022/04/05 03:09:59;;;;;;;9.60;8.70;;;;;;;;;;5067968;28;24418;-54
2022/04/05 03:12:26;;;;;;;8.70;7.90;;;;;;;;;;5078576;28;24418;-54
2022/04/05 03:14:51;;;;;;;8.68;7.88;;;;;;;;;;5069048;28;24578;-54
2022/04/05 03:17:16;;;;;;;8.88;7.97;;;;;;;;;;5077003;28;24818;-51
2022/04/05 03:19:41;;;;;;;9.10;8.30;;;;;;;;;;5086851;28;24429;-54
2022/04/05 03:22:06;;;;;;;9.20;8.40;;;;;;;;;;5073989;28;24433;-53
2022/04/05 03:24:31;;;;;;;8.47;7.77;;;;;;;;;;5076656;28;24992;-51
2022/04/05 03:26:57;;;;;;;8.50;7.70;;;;;;;;;;5080377;28;24441;-53
2022/04/05 03:29:22;;;;;;;9.25;8.45;;;;;;;;;;5073722;28;25131;-52
2022/04/05 03:31:48;;;;;;;8.40;7.70;;;;;;;;;;5075009;28;24410;-52
2022/04/05 03:34:15;;;;;;;8.40;7.60;;;;;;;;;;5069438;28;24435;-53
2022/04/05 03:36:43;;;;;;;8.20;7.50;;;;;;;;;;5068848;28;25073;-52
2022/04/05 03:39:10;;;;;;;8.32;7.53;;;;;;;;;;5076991;28;24430;-52
2022/04/05 03:41:36;;;;;;;8.20;7.50;;;;;;;;;;5075196;28;24987;-52
2022/04/05 03:44:01;;;;;;;8.57;7.77;;;;;;;;;;5069710;28;24429;-52
2022/04/05 03:46:26;;;;;;;7.75;7.05;;;;;;;;;;5086582;28;24414;-52
2022/04/05 03:48:51;;;;;;;8.23;7.43;;;;;;;;;;5074831;28;24849;-52
2022/04/05 03:51:16;;;;;;;7.88;7.18;;;;;;;;;;5074113;28;24826;-52
2022/04/05 03:53:41;;;;;;;7.80;7.10;;;;;;;;;;5070923;28;24422;-52
2022/04/05 03:56:06;;;;;;;7.90;7.20;;;;;;;;;;5088614;28;24421;-52
2022/04/05 03:58:32;;;;;;;7.37;6.67;;;;;;;;;;5072284;28;24866;-53
2022/04/05 04:00:57;;;;;;;7.40;6.80;;;;;;;;;;5079028;28;24415;-53
2022/04/05 04:03:22;;;;;;;6.87;6.27;;;;;;;;;;5067994;28;24523;-53
2022/04/05 04:05:47;;;;;;;7.07;6.50;;;;;;;;;;5071692;28;25019;-53
2022/04/05 04:08:12;;;;;;;7.57;6.97;;;;;;;;;;5078267;28;24453;-53
2022/04/05 04:10:37;;;;;;;7.00;6.40;;;;;;;;;;5083871;28;24414;-54
2022/04/05 04:13:03;;;;;;;7.68;6.97;;;;;;;;;;5069788;28;24833;-53
2022/04/05 04:15:28;;;;;;;7.43;6.83;;;;;;;;;;5072013;28;24514;-53
2022/04/05 04:17:53;;;;;;;7.03;6.43;;;;;;;;;;5074728;28;24808;-54
2022/04/05 04:20:18;;;;;;;6.80;6.20;;;;;;;;;;5071043;28;24449;-53
2022/04/05 04:22:43;;;;;;;6.87;6.20;;;;;;;;;;5082623;28;24427;-53
2022/04/05 04:25:09;;;;;;;6.90;6.30;;;;;;;;;;5074900;28;24781;-54
2022/04/05 04:27:34;;;;;;;7.00;6.40;;;;;;;;;;5084615;28;24403;-54
2022/04/05 04:29:59;;;;;;;7.20;6.60;;;;;;;;;;5079729;28;25002;-53
2022/04/05 04:32:25;;;;;;;7.18;6.53;;;;;;;;;;5072469;28;24422;-54
2022/04/05 04:34:50;;;;;;;6.60;6.10;;;;;;;;;;5073452;28;24410;-53
2022/04/05 04:37:15;;;;;;;7.53;6.93;;;;;;;;;;5082140;28;24459;-52
2022/04/05 04:39:40;;;;;;;6.30;5.80;;;;;;;;;;5070385;28;24532;-52
2022/04/05 04:42:06;;;;;;;6.97;6.47;;;;;;;;;;5075232;28;24963;-53
2022/04/05 04:44:31;;;;;;;7.20;6.60;;;;;;;;;;5078088;28;24453;-52
2022/04/05 04:46:56;;;;;;;6.80;6.20;;;;;;;;;;5079225;28;24475;-53
2022/04/05 04:49:22;;;;;;;7.15;6.55;;;;;;;;;;5074193;28;24533;-53
2022/04/05 04:51:47;;;;;;;6.63;6.03;;;;;;;;;;5071732;28;25011;-53
2022/04/05 04:54:12;;;;;;;6.50;5.90;;;;;;;;;;5078021;28;24661;-53
2022/04/05 04:56:37;;;;;;;6.83;6.27;;;;;;;;;;5072561;28;24935;-52
2022/04/05 04:59:02;;;;;;;6.20;5.70;;;;;;;;;;5081935;28;24430;-54
2022/04/05 05:01:28;;;;;;;6.50;6.00;;;;;;;;;;5074936;28;24442;-53
2022/04/05 05:03:53;;;;;;;6.43;5.93;;;;;;;;;;5075315;28;24503;-54
2022/04/05 05:06:18;;;;;;;6.28;5.78;;;;;;;;;;5084530;28;24844;-54
2022/04/05 05:08:43;;;;;;;6.27;5.77;;;;;;;;;;5084977;28;24413;-53
2022/04/05 05:11:09;;;;;;;6.60;6.10;;;;;;;;;;5083613;28;24989;-53
2022/04/05 05:13:34;;;;;;;6.00;5.50;;;;;;;;;;5077910;28;24733;-53
2022/04/05 05:15:59;;;;;;;6.80;6.20;;;;;;;;;;5072386;28;25068;-53
2022/04/05 05:18:25;;;;;;;6.60;6.10;;;;;;;;;;5076067;28;24407;-54
2022/04/05 05:20:50;;;;;;;6.40;5.90;;;;;;;;;;5069947;28;24426;-53
2022/04/05 05:23:15;;;;;;;6.57;6.07;;;;;;;;;;5071576;28;24499;-54
2022/04/05 05:25:40;;;;;;;6.70;6.20;;;;;;;;;;5065289;28;25044;-54
2022/04/05 05:28:05;;;;;;;6.10;5.60;;;;;;;;;;5067157;28;25191;-53
2022/04/05 05:30:31;;;;;;;5.80;5.30;;;;;;;;;;5066840;28;24387;-53
2022/04/05 05:32:56;;;;;;;5.60;5.20;;;;;;;;;;5066548;28;24952;-54
2022/04/05 05:35:21;;;;;;;5.93;5.43;;;;;;;;;;5066619;28;24501;-53
2022/04/05 05:37:47;;;;;;;5.10;4.70;;;;;;;;;;5066419;28;24778;-53
2022/04/05 05:40:13;;;;;;;4.60;4.30;;;;;;;;;;5066532;28;24463;-54
2022/04/05 05:42:58;;;;;;;4.85;4.45;;;;;;;;;;5066932;28;24440;-53
2022/04/05 05:45:23;;;;;;;4.72;4.43;;;;;;;;;;5066361;28;24908;-53
2022/04/05 05:47:48;;;;;;;4.20;3.90;;;;;;;;;;5086584;28;24426;-53
2022/04/05 05:50:14;;;;;;;3.90;3.60;;;;;;;;;;5086420;28;24485;-53
2022/04/05 05:52:40;;;;;;;3.67;3.37;;;;;;;;;;5080677;28;24425;-53
2022/04/05 05:55:06;;;;;;;3.58;3.38;;;;;;;;;;5077297;28;24429;-53
2022/04/05 05:57:31;;;;;;;3.87;3.57;;;;;;;;;;5081486;28;24410;-54
2022/04/05 05:59:56;;;;;;;3.90;3.60;;;;;;;;;;5070671;28;24434;-54
2022/04/05 06:02:21;;;;;;;3.40;3.20;;;;;;;;;;5066419;28;24541;-53
2022/04/05 06:04:46;;;;;;;3.80;3.50;;;;;;;;;;5065031;28;24514;-53
2022/04/05 06:07:12;;;;;;;3.80;3.50;;;;;;;;;;5068129;28;24846;-53
2022/04/05 06:09:37;;;;;;;3.60;3.38;;;;;;;;;;5068678;28;24505;-53
2022/04/05 06:12:02;;;;;;;3.78;3.47;;;;;;;;;;5077887;28;24414;-53
2022/04/05 06:14:28;;;;;;;4.00;3.70;;;;;;;;;;5065868;28;24413;-53
2022/04/05 06:16:53;;;;;;;3.80;3.50;;;;;;;;;;5077240;28;24436;-53
2022/04/05 06:19:18;;;;;;;4.13;3.83;;;;;;;;;;5069077;28;24460;-53
2022/04/05 06:21:43;;;;;;;3.53;3.22;;;;;;;;;;5073071;28;24827;-53
2022/04/05 06:24:08;;;;;;;3.50;3.20;;;;;;;;;;5079642;28;24418;-54
2022/04/05 06:26:33;;;;;;;3.80;3.50;;;;;;;;;;5068689;28;25109;-53
2022/04/05 06:28:58;;;;;;;4.30;3.70;;;;;;;;;;5075106;28;24438;-53
2022/04/05 06:31:24;;;;;;;3.60;3.30;;;;;;;;;;5086153;28;24393;-54
2022/04/05 06:33:49;;;;;;;3.60;3.40;;;;;;;;;;5086339;28;24544;-53
2022/04/05 06:36:14;;;;;;;4.18;3.88;;;;;;;;;;5085952;28;24394;-53
2022/04/05 06:38:39;;;;;;;3.75;3.45;;;;;;;;;;5084573;28;24421;-53
2022/04/05 06:41:04;;;;;;;3.90;3.60;;;;;;;;;;5086444;28;24426;-53
2022/04/05 06:43:30;;;;;;;3.57;3.27;;;;;;;;;;5085733;28;24386;-53
2022/04/05 06:45:55;;;;;;;3.55;3.35;;;;;;;;;;5084151;28;24934;-53
2022/04/05 06:48:20;;;;;;;3.60;3.30;;;;;;;;;;5085859;28;24931;-53
2022/04/05 06:50:47;;;;;;;3.25;3.05;;;;;;;;;;5086794;28;24525;-53
2022/04/05 06:53:12;;;;;;;3.28;2.80;;;;;;;;;;5090560;28;24399;-53
2022/04/05 06:55:37;;;;;;;2.70;2.50;;;;;;;;;;5089614;28;24397;-53
2022/04/05 06:58:03;;;;;;;2.70;2.50;;;;;;;;;;5089650;28;24475;-53
2022/04/05 07:00:28;;;;;;;3.10;2.80;;;;;;;;;;5088211;28;24429;-53
2022/04/05 07:02:54;;;;;;;3.00;2.80;;;;;;;;;;5089739;28;24416;-53
2022/04/05 07:05:19;;;;;;;2.50;2.40;;;;;;;;;;5087451;28;24382;-54
2022/04/05 07:07:45;;;;;;;3.20;3.00;;;;;;;;;;5090198;28;24392;-53
2022/04/05 07:10:11;;;;;;;3.30;3.00;;;;;;;;;;5087991;28;24423;-53
2022/04/05 07:12:36;;;;;;;3.10;2.80;;;;;;;;;;5089373;28;24471;-53
2022/04/05 07:15:02;;;;;;;2.90;2.70;;;;;;;;;;5089557;28;24406;-53
2022/04/05 07:17:27;;;;;;;3.75;3.45;;;;;;;;;;5089610;28;24513;-54
2022/04/05 07:19:53;;;;;;;3.35;3.10;;;;;;;;;;5089439;28;24437;-53
2022/04/05 07:22:19;;;;;;;3.20;3.00;;;;;;;;;;5087199;28;24430;-53
2022/04/05 07:24:45;;;;;;;3.70;3.40;;;;;;;;;;5089681;28;24386;-53
2022/04/05 07:27:10;;;;;;;2.90;2.70;;;;;;;;;;5089638;28;24402;-53
2022/04/05 07:29:36;;;;;;;3.57;3.27;;;;;;;;;;5089052;28;24968;-54
2022/04/05 07:32:01;;;;;;;3.33;3.10;;;;;;;;;;5087811;28;24503;-53
2022/04/05 07:34:26;;;;;;;3.50;3.30;;;;;;;;;;5088389;28;24474;-53
2022/04/05 07:36:51;;;;;;;3.10;2.90;;;;;;;;;;5089769;28;24489;-53
2022/04/05 07:39:19;;;;;;;3.17;2.97;;;;;;;;;;5088969;28;24406;-53
2022/04/05 07:41:44;;;;;;;3.20;3.00;;;;;;;;;;5086996;28;24997;-54
2022/04/05 07:44:09;;;;;;;3.33;3.10;;;;;;;;;;5072995;28;24425;-53
2022/04/05 07:46:35;;;;;;;3.70;3.40;;;;;;;;;;5067223;28;24429;-53
2022/04/05 07:49:00;;;;;;;3.00;2.80;;;;;;;;;;5068814;28;24746;-54
2022/04/05 07:51:26;;;;;;;3.40;3.20;;;;;;;;;;5068746;28;24781;-53
2022/04/05 07:53:51;;;;;;;3.10;2.90;;;;;;;;;;5074230;28;24529;-53
2022/04/05 07:56:16;;;;;;;3.20;3.00;;;;;;;;;;5087447;28;24750;-54
2022/04/05 07:58:42;;;;;;;3.55;3.25;;;;;;;;;;5088895;28;24398;-53
2022/04/05 08:01:08;;;;;;;3.70;3.50;;;;;;;;;;5088599;28;24424;-53
2022/04/05 08:03:34;;;;;;;3.55;3.25;;;;;;;;;;5086145;28;24470;-54
2022/04/05 08:06:00;;;;;;;3.50;3.30;;;;;;;;;;5087967;28;24415;-53
2022/04/05 08:08:25;;;;;;;3.30;3.10;;;;;;;;;;5088598;28;24945;-53
2022/04/05 08:10:50;;;;;;;3.70;3.50;;;;;;;;;;5088815;28;24393;-53
2022/04/05 08:13:15;;;;;;;4.00;3.70;;;;;;;;;;5088470;28;25062;-53
2022/04/05 08:15:41;;;;;;;3.80;3.50;;;;;;;;;;5073995;28;24414;-53
2022/04/05 08:18:07;;;;;;;3.95;3.75;;;;;;;;;;5068095;28;24469;-53
2022/04/05 08:20:34;;;;;;;4.10;3.80;;;;;;;;;;5067966;28;24397;-53
2022/04/05 08:22:59;;;;;;;4.05;3.85;;;;;;;;;;5068107;28;24425;-53
2022/04/05 08:25:24;;;;;;;3.80;3.40;;;;;;;;;;5067839;28;25074;-53
2022/04/05 08:27:49;;;;;;;4.00;3.80;;;;;;;;;;5067495;28;24498;-53
2022/04/05 08:30:17;;;;;;;3.63;3.43;;;;;;;;;;5068141;28;24462;-54
2022/04/05 08:32:43;;;;;;;3.60;3.40;;;;;;;;;;5067694;28;24403;-52
2022/04/05 08:35:09;;;;;;;3.90;3.60;;;;;;;;;;5067166;28;24414;-53
2022/04/05 08:37:34;;;;;;;3.40;3.20;;;;;;;;;;5068040;28;24399;-53
2022/04/05 08:40:03;;;;;;;3.67;3.47;;;;;;;;;;5068232;28;24456;-53
2022/04/05 08:42:28;;;;;;;3.50;3.30;;;;;;;;;;5067250;28;25028;-53
2022/04/05 08:44:54;;;;;;;3.13;2.80;;;;;;;;;;5067433;28;24490;-56
2022/04/05 08:47:21;;;;;;;4.00;3.40;;;;;;;;;;5083249;28;24499;-53
2022/04/05 08:49:48;;;;;;;3.40;3.20;;;;;;;;;;5087529;28;24401;-53
2022/04/05 08:52:13;;;;;;;3.33;3.13;;;;;;;;;;5087784;28;24418;-52
2022/04/05 08:54:38;;;;;;;2.65;2.55;;;;;;;;;;5087393;28;24497;-53
2022/04/05 08:57:03;;;;;;;3.10;2.90;;;;;;;;;;5085657;28;24435;-54
2022/04/05 08:59:29;;;;;;;3.10;2.90;;;;;;;;;;5087250;28;24764;-53
2022/04/05 09:01:55;;;;;;;3.30;3.10;;;;;;;;;;5087748;28;24426;-53
2022/04/05 09:04:20;;;;;;;3.10;2.90;;;;;;;;;;5087702;28;25073;-52
2022/04/05 09:06:46;;;;;;;3.00;2.80;;;;;;;;;;5085743;28;24430;-54
2022/04/05 09:09:12;;;;;;;3.90;3.20;;;;;;;;;;5087039;28;24765;-54
2022/04/05 09:11:48;;;;;;;3.47;3.17;;;;;;;;;;5087642;28;24390;-53
2022/04/05 09:14:13;;;;;;;3.50;3.30;;;;;;;;;;5086908;28;24387;-53
2022/04/05 09:16:39;;;;;;;3.33;3.13;;;;;;;;;;5086857;28;24492;-53
2022/04/05 09:19:14;;;;;;;3.15;2.95;;;;;;;;;;5085649;28;24418;-53
2022/04/05 09:21:49;;;;;;;3.40;3.20;;;;;;;;;;5086967;28;24456;-53
2022/04/05 09:24:14;;;;;;;2.90;2.70;;;;;;;;;;5087108;28;24508;-53
2022/04/05 09:26:43;;;;;;;3.53;3.22;;;;;;;;;;5081421;28;24526;-53
2022/04/05 09:29:08;;;;;;;2.90;2.70;;;;;;;;;;5066837;28;24419;-53
2022/04/05 09:31:41;;;;;;;3.30;3.00;;;;;;;;;;5066612;28;24788;-53
2022/04/05 09:34:08;;;;;;;3.35;3.15;;;;;;;;;;5066428;28;24399;-53
2022/04/05 09:36:36;;;;;;;3.38;3.17;;;;;;;;;;5066186;28;24394;-53
2022/04/05 09:39:17;;;;;;;3.40;3.20;;;;;;;;;;5087213;28;24757;-53
2022/04/05 09:41:43;;;;;;;4.10;3.80;;;;;;;;;;5086459;28;24442;-53
2022/04/05 09:44:08;;;;;;;4.20;3.90;;;;;;;;;;5086723;28;24833;-53
2022/04/05 09:46:35;;;;;;;4.27;3.97;;;;;;;;;;5086478;28;24382;-54
2022/04/05 09:49:04;;;;;;;4.40;4.00;;;;;;;;;;5084742;28;24471;-54
2022/04/05 09:51:33;;;;;;;5.28;4.78;;;;;;;;;;5085959;28;25219;-53
2022/04/05 09:53:58;;;;;;;4.90;4.50;;;;;;;;;;5086448;28;24413;-54
2022/04/05 09:56:26;;;;;;;5.80;4.50;;;;;;;;;;5086805;28;24821;-53
2022/04/05 09:58:53;;;;;;;5.13;4.68;;;;;;;;;;5084641;28;24505;-53
2022/04/05 10:01:20;;;;;;;4.63;4.30;;;;;;;;;;5086471;28;24484;-53
2022/04/05 10:03:56;;;;;;;5.00;4.50;;;;;;;;;;5086354;28;24387;-52
2022/04/05 10:06:21;;;;;;;5.20;4.78;;;;;;;;;;5086312;28;24462;-52
2022/04/05 10:08:46;;;;;;;5.50;5.00;;;;;;;;;;5085057;28;24559;-52
2022/04/05 10:11:11;;;;;;;5.65;5.10;;;;;;;;;;5084948;28;24995;-52
2022/04/05 10:13:36;;;;;;;8.03;5.40;;;;;;;;;;5084832;28;24749;-51
2022/04/05 10:16:02;;;;;;;5.93;4.60;;;;;;;;;;5065976;28;24951;-52
2022/04/05 10:18:34;;;;;;;4.70;4.30;;;;;;;;;;5065569;28;24415;-51
2022/04/05 10:21:00;;;;;;;5.03;4.20;;;;;;;;;;5066041;28;25123;-52
2022/04/05 10:23:25;;;;;;;4.53;4.00;;;;;;;;;;5065927;28;24391;-52
2022/04/05 10:25:51;;;;;;;4.70;4.20;;;;;;;;;;5068324;28;24402;-52
2022/04/05 10:28:18;;;;;;;4.10;3.70;;;;;;;;;;5069816;28;24442;-53
2022/04/05 10:30:47;;;;;;;4.95;4.00;;;;;;;;;;5069799;28;24781;-53
2022/04/05 10:33:14;;;;;;;4.63;3.88;;;;;;;;;;5070261;28;24883;-52
2022/04/05 10:35:50;;;;;;;3.92;3.53;;;;;;;;;;5069638;28;24510;-53
2022/04/05 10:38:19;;;;;;;3.95;3.35;;;;;;;;;;5070438;28;24406;-52
2022/04/05 10:41:02;;;;;;;4.00;3.35;;;;;;;;;;5070098;28;24445;-52
2022/04/05 10:43:28;;;;;;;4.10;3.60;;;;;;;;;;5069692;28;24576;-52
2022/04/05 10:45:53;;;;;;;3.83;3.50;;;;;;;;;;5069281;28;24749;-52
2022/04/05 10:48:20;;;;;;;5.65;4.00;;;;;;;;;;5069456;28;24494;-53
2022/04/05 10:51:00;;;;;;;4.60;4.20;;;;;;;;;;5083390;28;24551;-53
2022/04/05 10:53:34;;;;;;;4.40;4.00;;;;;;;;;;5090400;28;24417;-53
2022/04/05 10:56:02;;;;;;;4.10;3.80;;;;;;;;;;5090014;28;24374;-53
2022/04/05 10:58:28;;;;;;;4.60;4.20;;;;;;;;;;5090255;28;24797;-53
2022/04/05 11:01:11;;;;;;;4.83;4.17;;;;;;;;;;5087772;28;25131;-53
2022/04/05 11:03:36;;;;;;;4.63;4.22;;;;;;;;;;5090090;28;24450;-53
2022/04/05 11:06:02;;;;;;;5.90;4.40;;;;;;;;;;5088993;28;24425;-52
2022/04/05 11:08:27;;;;;;;5.30;4.80;;;;;;;;;;5088539;28;24956;-52
2022/04/05 11:10:53;;;;;;;5.57;4.43;;;;;;;;;;5089880;28;24403;-53
2022/04/05 11:13:29;;;;;;;4.47;4.07;;;;;;;;;;5090045;28;24393;-53
2022/04/05 11:15:56;;;;;;;4.55;4.15;;;;;;;;;;5089713;28;24489;-53
2022/04/05 11:18:23;;;;;;;4.57;4.18;;;;;;;;;;5074529;28;24414;-53
2022/04/05 11:20:51;;;;;;;4.03;3.72;;;;;;;;;;5068942;28;24971;-53
2022/04/05 11:23:18;;;;;;;5.30;4.80;;;;;;;;;;5068779;28;25057;-53
2022/04/05 11:25:43;;;;;;;4.30;3.90;;;;;;;;;;5069055;28;24959;-53
2022/04/05 11:28:13;;;;;;;5.10;4.60;;;;;;;;;;5068769;28;24466;-53
2022/04/05 11:30:40;;;;;;;4.50;4.10;;;;;;;;;;5068722;28;24741;-53
2022/04/05 11:33:18;;;;;;;4.15;3.85;;;;;;;;;;5080718;28;24717;-52
2022/04/05 11:35:44;;;;;;;4.50;4.10;;;;;;;;;;5088232;28;24477;-53
2022/04/05 11:38:26;;;;;;;4.20;3.90;;;;;;;;;;5089225;28;24786;-54
2022/04/05 11:40:52;;;;;;;4.10;3.80;;;;;;;;;;5089321;28;24390;-54
2022/04/05 11:43:24;;;;;;;5.10;4.60;;;;;;;;;;5086873;28;24473;-53
2022/04/05 11:45:51;;;;;;;5.10;4.70;;;;;;;;;;5088729;28;24959;-53
2022/04/05 11:48:16;;;;;;;5.65;4.75;;;;;;;;;;5088805;28;24413;-54
2022/04/05 11:50:42;;;;;;;4.60;4.30;;;;;;;;;;5088918;28;24405;-53
2022/04/05 11:53:19;;;;;;;5.07;4.67;;;;;;;;;;5086942;28;24425;-53
2022/04/05 11:56:03;;;;;;;5.20;4.80;;;;;;;;;;5088796;28;24462;-53
2022/04/05 11:58:30;;;;;;;5.03;4.63;;;;;;;;;;5088360;28;24972;-53
2022/04/05 12:00:56;;;;;;;4.95;4.55;;;;;;;;;;5089095;28;24987;-54
2022/04/05 12:03:21;;;;;;;5.70;5.30;;;;;;;;;;5088449;28;24529;-54
2022/04/05 12:05:46;;;;;;;5.70;5.30;;;;;;;;;;5087289;28;24437;-53
2022/04/05 12:08:12;;;;;;;5.20;4.80;;;;;;;;;;5088900;28;24383;-53
2022/04/05 12:10:37;;;;;;;5.23;4.73;;;;;;;;;;5088219;28;24924;-54
2022/04/05 12:13:02;;;;;;;5.10;4.70;;;;;;;;;;5088328;28;24451;-54
2022/04/05 12:15:28;;;;;;;5.70;5.30;;;;;;;;;;5087203;28;24422;-53
2022/04/05 12:18:11;;;;;;;5.80;5.30;;;;;;;;;;5088110;28;24482;-53
2022/04/05 12:20:36;;;;;;;5.95;5.45;;;;;;;;;;5088121;28;24417;-53
2022/04/05 12:23:02;;;;;;;5.70;5.20;;;;;;;;;;5088270;28;24422;-53
2022/04/05 12:25:27;;;;;;;5.95;5.45;;;;;;;;;;5085710;28;24445;-53
2022/04/05 12:27:53;;;;;;;5.68;5.18;;;;;;;;;;5087761;28;24515;-53
2022/04/05 12:30:26;;;;;;;6.10;5.60;;;;;;;;;;5087927;28;24437;-54
2022/04/05 12:32:52;;;;;;;5.10;4.70;;;;;;;;;;5088263;28;24405;-53
2022/04/05 12:35:19;;;;;;;5.75;5.25;;;;;;;;;;5086577;28;24394;-53
2022/04/05 12:37:44;;;;;;;5.82;5.22;;;;;;;;;;5087520;28;24406;-53
2022/04/05 12:40:23;;;;;;;5.90;5.40;;;;;;;;;;5084013;28;24415;-53
2022/04/05 12:42:48;;;;;;;5.55;5.10;;;;;;;;;;5067351;28;24407;-53
2022/04/05 12:45:13;;;;;;;6.60;6.00;;;;;;;;;;5068058;28;25058;-53
2022/04/05 12:47:43;;;;;;;6.10;5.60;;;;;;;;;;5069203;28;24418;-53
2022/04/05 12:50:08;;;;;;;4.60;4.20;;;;;;;;;;5087680;28;24396;-53
2022/04/05 12:52:34;;;;;;;3.70;3.40;;;;;;;;;;5088081;28;24505;-53
2022/04/05 12:55:00;;;;;;;1.80;1.70;;;;;;;;;;5087770;28;24394;-53
2022/04/05 12:57:35;;;;;;;1.50;1.40;;;;;;;;;;5085811;28;24420;-53
2022/04/05 13:00:09;;;;;;;1.70;1.60;;;;;;;;;;5087313;28;24505;-53
2022/04/05 13:02:35;;;;;;;1.38;1.30;;;;;;;;;;5087804;28;24413;-54
2022/04/05 13:08:04;;;;;;;1.80;1.70;;;;;;;;;;5086238;28;24410;-53
2022/04/05 13:10:32;;;;;;;1.70;1.60;;;;;;;;;;5087590;28;24390;-53
2022/04/05 13:13:10;;;;;;;1.63;1.53;;;;;;;;;;5086932;28;24448;-53
2022/04/05 13:15:36;;;;;;;1.70;1.60;;;;;;;;;;5087171;28;24394;-54
2022/04/05 13:18:05;;;;;;;1.70;1.60;;;;;;;;;;5086922;28;24405;-54
2022/04/05 13:20:30;;;;;;;1.60;1.50;;;;;;;;;;5085268;28;24509;-53
2022/04/05 13:22:59;;;;;;;1.67;1.58;;;;;;;;;;5086935;28;24517;-53
2022/04/05 13:25:38;;;;;;;1.92;1.83;;;;;;;;;;5087562;28;24397;-54
2022/04/05 13:28:04;;;;;;;1.70;1.60;;;;;;;;;;5066369;28;24591;-53
2022/04/05 13:30:30;;;;;;;1.87;1.77;;;;;;;;;;5067027;28;24750;-53
2022/04/05 13:33:02;;;;;;;1.80;1.70;;;;;;;;;;5065881;28;24425;-53
2022/04/05 13:35:27;;;;;;;3.30;1.70;;;;;;;;;;5066689;28;24947;-53
2022/04/05 13:37:52;;;;;;;1.80;1.70;;;;;;;;;;5066287;28;24414;-54
2022/04/05 13:40:17;;;;;;;2.00;1.90;;;;;;;;;;5066778;28;24728;-53
2022/04/05 13:42:43;;;;;;;2.05;1.95;;;;;;;;;;5065754;28;24573;-53
2022/04/05 13:45:08;;;;;;;2.20;2.10;;;;;;;;;;5067046;28;24402;-53
2022/04/05 13:47:34;;;;;;;2.10;2.00;;;;;;;;;;5078692;28;24941;-53
2022/04/05 13:49:59;;;;;;;2.08;1.98;;;;;;;;;;5086485;28;24375;-53
2022/04/05 13:52:24;;;;;;;2.10;2.00;;;;;;;;;;5086890;28;24689;-55
2022/04/05 13:54:49;;;;;;;2.40;2.30;;;;;;;;;;5075666;28;24458;-54
2022/04/05 13:57:18;;;;;;;2.50;2.30;;;;;;;;;;5066100;28;24394;-55
2022/04/05 13:59:44;;;;;;;2.88;2.67;;;;;;;;;;5066322;28;24776;-53
2022/04/05 14:02:09;;;;;;;3.13;2.93;;;;;;;;;;5066492;28;24430;-54
2022/04/05 14:04:34;;;;;;;2.63;2.50;;;;;;;;;;5066368;28;24414;-53
2022/04/05 14:06:59;;;;;;;3.90;3.60;;;;;;;;;;5073618;28;24781;-54
2022/04/05 14:09:25;;;;;;;3.50;3.30;;;;;;;;;;5086530;28;24745;-53
2022/04/05 14:11:50;;;;;;;3.60;3.40;;;;;;;;;;5086440;28;24383;-54
2022/04/05 14:14:15;;;;;;;3.30;3.10;;;;;;;;;;5086361;28;24501;-54
2022/04/05 14:16:40;;;;;;;3.53;3.33;;;;;;;;;;5085309;28;24386;-53
2022/04/05 14:19:05;;;;;;;3.58;3.38;;;;;;;;;;5085489;28;24414;-53
2022/04/05 14:21:31;;;;;;;3.10;2.90;;;;;;;;;;5086789;28;24418;-53
2022/04/05 14:23:57;;;;;;;3.50;3.30;;;;;;;;;;5085807;28;24383;-54
2022/04/05 14:26:22;;;;;;;3.40;3.20;;;;;;;;;;5085943;28;24382;-54
2022/04/05 14:28:47;;;;;;;3.10;2.90;;;;;;;;;;5086477;28;24426;-52
2022/04/05 14:31:12;;;;;;;2.63;2.53;;;;;;;;;;5069265;28;24971;-52
2022/04/05 14:33:38;;;;;;;2.80;2.70;;;;;;;;;;5065911;28;24618;-53
2022/04/05 14:36:03;;;;;;;3.10;2.90;;;;;;;;;;5066333;28;24481;-52